Time;durP1;ratioP1;P1;durP2;ratioP2;P2;SDS_P1;SDS_P2;PMS_P1;PMS_P2;Temp;Humidity;BMP_temperature;BMP_pressure;BME280_temperature;BME280_humidity;BME280_pressure;Samples;Min_cycle;Max_cycle;Signal;HPM_P1;HPM_P2
2021/07/02 00:01:39;;;;;;;;;;;;;;;19.00;76.83;96621.73;1824362;77;20095;-75
2021/07/02 00:04:06;;;;;;;;;;;;;;;19.00;77.58;96623.06;1843902;77;20100;-76
2021/07/02 00:06:32;;;;;;;;;;;;;;;18.96;73.64;96613.80;1834264;77;20107;-74
2021/07/02 00:08:59;;;;;;;;;;;;;;;18.94;72.55;96609.63;1843556;77;20133;-75
2021/07/02 00:11:25;;;;;;;;;;;;;;;18.92;73.97;96604.45;1848366;77;20096;-75
2021/07/02 00:13:51;;;;;;;;;;;;;;;18.91;73.64;96598.80;1849307;77;20096;-75
2021/07/02 00:16:18;;;;;;;;;;;;;;;18.90;73.40;96595.80;1846786;77;20365;-74
2021/07/02 00:18:44;;;;;;;;;;;;;;;18.90;74.67;96595.80;1837401;77;20421;-78
2021/07/02 00:21:10;;;;;;;;;;;;;;;18.85;74.03;96591.55;1819779;78;20100;-74
2021/07/02 00:23:36;;;;;;;;;;;;;;;18.82;73.79;96591.91;1845959;77;20104;-74
2021/07/02 00:26:02;;;;;;;;;;;;;;;18.78;74.03;96592.80;1846386;77;20147;-75
2021/07/02 00:28:28;;;;;;;;;;;;;;;18.79;73.95;96594.98;1849366;77;20104;-73
2021/07/02 00:30:54;;;;;;;;;;;;;;;18.76;73.91;96603.35;1833234;77;20119;-74
2021/07/02 00:33:21;;;;;;;;;;;;;;;18.72;74.22;96596.23;1832656;77;20088;-75
2021/07/02 00:35:47;;;;;;;;;;;;;;;18.72;72.42;96593.03;1843231;77;20100;-75
2021/07/02 00:38:13;;;;;;;;;;;;;;;18.70;74.27;96591.05;1843269;77;20120;-75
2021/07/02 00:40:39;;;;;;;;;;;;;;;18.68;73.45;96582.92;1848713;77;20095;-75
2021/07/02 00:43:06;;;;;;;;;;;;;;;18.64;73.57;96587.81;1839627;77;20164;-74
2021/07/02 00:45:34;;;;;;;;;;;;;;;18.61;74.05;96584.17;1842919;77;20092;-74
2021/07/02 00:48:01;;;;;;;;;;;;;;;18.58;73.38;96591.23;1833694;77;20088;-74
2021/07/02 00:50:28;;;;;;;;;;;;;;;18.54;72.96;96584.11;1842243;77;20142;-73
2021/07/02 00:52:56;;;;;;;;;;;;;;;18.54;73.04;96587.27;1812505;77;20167;-73
2021/07/02 00:55:22;;;;;;;;;;;;;;;18.54;73.02;96585.94;1785725;79;20094;-76
2021/07/02 00:57:49;;;;;;;;;;;;;;;18.53;74.01;96588.28;1754802;80;20140;-74
2021/07/02 01:00:17;;;;;;;;;;;;;;;18.51;73.52;96584.99;1768682;80;20135;-73
2021/07/02 01:02:44;;;;;;;;;;;;;;;18.53;74.10;96589.61;1769402;80;20458;-75
2021/07/02 01:05:13;;;;;;;;;;;;;;;18.52;72.58;96590.13;1775498;80;20150;-75
2021/07/02 01:07:42;;;;;;;;;;;;;;;18.53;73.34;96585.61;1784416;80;20108;-75
2021/07/02 01:10:11;;;;;;;;;;;;;;;18.52;71.07;96586.13;1749827;80;20107;-75
2021/07/02 01:12:39;;;;;;;;;;;;;;;18.51;74.21;96589.81;1758079;80;20105;-75
2021/07/02 01:15:24;;;;;;;;;;;;;;;18.48;74.13;96592.84;1776847;80;20127;-75
2021/07/02 01:17:53;;;;;;;;;;;;;;;18.44;73.62;96586.72;1776065;80;20417;-75
2021/07/02 01:20:21;;;;;;;;;;;;;;;18.43;73.97;96587.24;1788925;79;20122;-72
2021/07/02 01:22:49;;;;;;;;;;;;;;;18.07;75.70;96534.14;1785950;79;20266;-72
2021/07/02 01:25:16;;;;;;;;;;;;;;;18.35;73.99;96580.16;1780341;80;20147;-75
2021/07/02 01:27:43;;;;;;;;;;;;;;;18.31;72.71;96575.38;1785503;80;20232;-75
2021/07/02 01:30:12;;;;;;;;;;;;;;;18.29;72.73;96575.57;1781832;80;20288;-74
2021/07/02 01:32:39;;;;;;;;;;;;;;;18.28;73.42;96579.25;1751387;80;20488;-73
2021/07/02 01:35:05;;;;;;;;;;;;;;;18.29;74.24;96584.06;1736259;82;20098;-75
2021/07/02 01:37:32;;;;;;;;;;;;;;;18.27;71.55;96574.92;1759928;80;20089;-74
2021/07/02 01:40:01;;;;;;;;;;;;;;;18.25;71.92;96580.45;1783597;80;20402;-75
2021/07/02 01:42:29;;;;;;;;;;;;;;;18.25;72.65;96577.78;1763998;80;20105;-73
2021/07/02 01:44:56;;;;;;;;;;;;;;;18.22;72.98;96577.33;1748011;80;20172;-75
2021/07/02 01:47:23;;;;;;;;;;;;;;;18.21;71.69;96579.67;1786886;80;20147;-75
2021/07/02 01:49:51;;;;;;;;;;;;;;;18.20;72.43;96574.01;1778863;80;20101;-75
2021/07/02 01:52:18;;;;;;;;;;;;;;;18.20;71.56;96574.82;1783006;80;20328;-75
2021/07/02 01:54:44;;;;;;;;;;;;;;;18.21;72.54;96582.34;1786662;80;20131;-74
2021/07/02 01:57:15;;;;;;;;;;;;;;;18.18;70.91;96575.54;1826592;77;20413;-74
2021/07/02 01:59:42;;;;;;;;;;;;;;;18.17;72.39;96579.70;1825658;77;20127;-75
2021/07/02 02:02:10;;;;;;;;;;;;;;;18.15;72.51;96573.72;1842301;77;20100;-75
2021/07/02 02:04:37;;;;;;;;;;;;;;;18.11;69.78;96574.59;1840793;77;20089;-73
2021/07/02 02:07:04;;;;;;;;;;;;;;;18.10;73.25;96570.27;1823241;77;20131;-73
2021/07/02 02:09:30;;;;;;;;;;;;;;;18.08;72.38;96568.31;1842755;77;20369;-74
2021/07/02 02:11:58;;;;;;;;;;;;;;;18.02;72.17;96571.69;1842732;77;20214;-72
2021/07/02 02:14:26;;;;;;;;;;;;;;;17.97;73.13;96570.09;1843136;77;20131;-75
2021/07/02 02:16:54;;;;;;;;;;;;;;;17.94;72.89;96568.59;1822841;77;20096;-75
2021/07/02 02:19:21;;;;;;;;;;;;;;;17.94;74.71;96570.75;1840412;77;20107;-74
2021/07/02 02:21:48;;;;;;;;;;;;;;;17.92;75.47;96575.94;1813890;78;20179;-75
2021/07/02 02:24:14;;;;;;;;;;;;;;;17.87;73.81;96576.49;1834921;77;20107;-75
2021/07/02 02:26:41;;;;;;;;;;;;;;;17.85;75.30;96585.69;1828614;77;20100;-75
2021/07/02 02:29:09;;;;;;;;;;;;;;;17.84;73.86;96588.84;1828686;77;20325;-74
2021/07/02 02:31:37;;;;;;;;;;;;;;;17.83;74.26;96589.03;1841884;77;20091;-76
2021/07/02 02:34:05;;;;;;;;;;;;;;;17.79;72.89;96594.72;1839697;77;20140;-73
2021/07/02 02:36:34;;;;;;;;;;;;;;;17.79;72.37;96591.23;1845831;77;20123;-75
2021/07/02 02:39:00;;;;;;;;;;;;;;;17.77;74.46;96595.91;1844634;77;20162;-75
2021/07/02 02:41:27;;;;;;;;;;;;;;;17.77;76.16;96602.05;1842544;77;20091;-74
2021/07/02 02:43:55;;;;;;;;;;;;;;;17.78;71.72;96598.91;1849891;77;20151;-74
2021/07/02 02:46:22;;;;;;;;;;;;;;;17.79;73.32;96601.37;1825732;77;20088;-74
2021/07/02 02:48:48;;;;;;;;;;;;;;;17.82;72.57;96606.03;1843803;77;20104;-75
2021/07/02 02:51:15;;;;;;;;;;;;;;;17.86;73.61;96614.00;1842544;77;20139;-74
2021/07/02 02:53:42;;;;;;;;;;;;;;;17.88;72.50;96613.30;1837116;77;20092;-75
2021/07/02 02:56:08;;;;;;;;;;;;;;;17.91;72.16;96616.42;1844269;77;20389;-74
2021/07/02 02:58:34;;;;;;;;;;;;;;;17.97;71.96;96619.42;1843375;77;20143;-74
2021/07/02 03:01:02;;;;;;;;;;;;;;;17.98;70.32;96621.89;1844275;77;20267;-74
2021/07/02 03:03:29;;;;;;;;;;;;;;;18.01;71.18;96626.88;1835979;77;20084;-75
2021/07/02 03:05:56;;;;;;;;;;;;;;;18.06;70.58;96626.33;1839934;77;20096;-74
2021/07/02 03:08:23;;;;;;;;;;;;;;;18.10;70.35;96627.12;1839711;77;20380;-74
2021/07/02 03:10:51;;;;;;;;;;;;;;;18.17;69.83;96631.22;1836304;77;20417;-75
2021/07/02 03:13:18;;;;;;;;;;;;;;;18.22;70.25;96628.81;1821135;78;20132;-75
2021/07/02 03:15:44;;;;;;;;;;;;;;;18.28;67.97;96632.59;1845366;77;20099;-75
2021/07/02 03:18:11;;;;;;;;;;;;;;;18.36;68.53;96634.36;1839337;77;20088;-76
2021/07/02 03:20:38;;;;;;;;;;;;;;;18.48;71.31;96638.20;1829271;77;20093;-74
2021/07/02 03:23:05;;;;;;;;;;;;;;;18.61;70.85;96631.39;1841641;77;20163;-75
2021/07/02 03:25:31;;;;;;;;;;;;;;;18.72;69.29;96640.27;1793035;77;20385;-75
2021/07/02 03:27:57;;;;;;;;;;;;;;;18.83;71.55;96642.96;1798569;78;20121;-74
2021/07/02 03:30:24;;;;;;;;;;;;;;;18.92;69.57;96646.37;1844550;77;20471;-74
2021/07/02 03:32:51;;;;;;;;;;;;;;;19.01;73.22;96639.41;1831033;77;20393;-76
2021/07/02 03:35:18;;;;;;;;;;;;;;;19.14;72.16;96638.73;1847661;77;20502;-73
2021/07/02 03:37:45;;;;;;;;;;;;;;;19.24;71.73;96643.78;1844575;77;20092;-75
2021/07/02 03:40:12;;;;;;;;;;;;;;;19.32;71.48;96636.98;1813148;78;20417;-76
2021/07/02 03:42:40;;;;;;;;;;;;;;;19.43;74.15;96634.83;1844756;77;20166;-76
2021/07/02 03:45:07;;;;;;;;;;;;;;;19.53;73.60;96634.49;1840390;77;20088;-74
2021/07/02 03:47:36;;;;;;;;;;;;;;;19.62;70.09;96634.19;1845027;77;20433;-74
2021/07/02 03:50:03;;;;;;;;;;;;;;;19.75;74.52;96641.98;1839937;77;20089;-74
2021/07/02 03:52:30;;;;;;;;;;;;;;;19.87;76.13;96636.47;1831127;77;20535;-71
2021/07/02 03:54:56;;;;;;;;;;;;;;;19.99;73.24;96631.94;1844443;77;20091;-73
2021/07/02 03:57:22;;;;;;;;;;;;;;;20.29;71.36;96628.02;1838025;77;20092;-75
2021/07/02 03:59:50;;;;;;;;;;;;;;;20.73;73.55;96624.67;1830788;77;20096;-75
2021/07/02 04:02:18;;;;;;;;;;;;;;;21.24;71.40;96623.93;1836702;77;20092;-73
2021/07/02 04:04:44;;;;;;;;;;;;;;;21.71;74.26;96619.98;1839626;77;20103;-71
2021/07/02 04:07:12;;;;;;;;;;;;;;;22.11;65.52;96617.30;1847331;77;20091;-74
2021/07/02 04:09:39;;;;;;;;;;;;;;;22.44;64.65;96609.72;1845882;77;20401;-74
2021/07/02 04:12:06;;;;;;;;;;;;;;;22.67;62.87;96609.77;1851206;77;20416;-73
2021/07/02 04:14:34;;;;;;;;;;;;;;;23.08;62.83;96606.38;1835618;77;20092;-74
2021/07/02 04:17:00;;;;;;;;;;;;;;;23.51;59.67;96603.56;1827712;77;20107;-75
2021/07/02 04:19:27;;;;;;;;;;;;;;;24.06;58.32;96602.92;1820032;77;20107;-74
2021/07/02 04:21:53;;;;;;;;;;;;;;;24.71;59.46;96604.88;1831582;77;20380;-75
2021/07/02 04:24:20;;;;;;;;;;;;;;;25.38;59.48;96598.61;1848819;77;20119;-73
2021/07/02 04:26:46;;;;;;;;;;;;;;;25.76;61.42;96598.75;1846519;77;20714;-72
2021/07/02 04:29:12;;;;;;;;;;;;;;;26.02;54.09;96590.74;1842887;77;20152;-74
2021/07/02 04:31:40;;;;;;;;;;;;;;;26.53;66.03;96592.14;1844515;77;20147;-75
2021/07/02 04:34:06;;;;;;;;;;;;;;;27.08;58.46;96588.95;1852579;77;20132;-73
2021/07/02 04:36:34;;;;;;;;;;;;;;;27.69;58.15;96587.09;1834932;77;20248;-73
2021/07/02 04:39:00;;;;;;;;;;;;;;;28.31;60.06;96587.20;1835550;78;20425;-76
2021/07/02 04:41:26;;;;;;;;;;;;;;;28.90;45.70;96581.75;1838762;77;20171;-74
2021/07/02 04:43:52;;;;;;;;;;;;;;;29.40;48.96;96581.21;1831665;77;20221;-75
2021/07/02 04:46:18;;;;;;;;;;;;;;;29.89;48.73;96584.33;1835737;77;20093;-76
2021/07/02 04:48:45;;;;;;;;;;;;;;;30.12;48.11;96583.72;1833536;77;20092;-74
2021/07/02 04:51:11;;;;;;;;;;;;;;;30.36;52.30;96588.22;1846006;77;20092;-75
2021/07/02 04:53:38;;;;;;;;;;;;;;;30.27;45.42;96584.36;1841045;77;20404;-72
2021/07/02 04:56:04;;;;;;;;;;;;;;;30.11;48.20;96588.34;1799582;79;20097;-74
2021/07/02 04:58:30;;;;;;;;;;;;;;;30.01;41.00;96585.56;1837684;77;20124;-76
2021/07/02 05:00:56;;;;;;;;;;;;;;;29.95;55.70;96586.58;1849356;77;20175;-74
2021/07/02 05:03:22;;;;;;;;;;;;;;;29.74;62.68;96594.01;1849007;77;20129;-75
2021/07/02 05:05:49;;;;;;;;;;;;;;;29.40;60.64;96594.26;1848758;77;20152;-74
2021/07/02 05:08:15;;;;;;;;;;;;;;;28.98;45.47;96595.70;1847857;77;20172;-73
2021/07/02 05:10:42;;;;;;;;;;;;;;;28.82;43.74;96597.92;1816405;77;20125;-74
2021/07/02 05:13:09;;;;;;;;;;;;;;;28.82;43.51;96603.34;1833519;77;20128;-74
2021/07/02 05:15:35;;;;;;;;;;;;;;;29.14;44.62;96605.34;1832150;77;20092;-73
2021/07/02 05:18:01;;;;;;;;;;;;;;;29.82;41.34;96606.30;1837915;77;20392;-72
2021/07/02 05:20:28;;;;;;;;;;;;;;;30.73;42.71;96613.18;1844762;77;20500;-75
2021/07/02 05:22:56;;;;;;;;;;;;;;;31.52;44.08;96609.61;1829968;77;20103;-75
2021/07/02 05:25:22;;;;;;;;;;;;;;;32.10;42.62;96599.86;1822051;77;20176;-75
2021/07/02 05:27:48;;;;;;;;;;;;;;;32.42;49.51;96610.19;1823750;77;20092;-76
2021/07/02 05:30:15;;;;;;;;;;;;;;;32.34;36.44;96608.28;1835587;77;20155;-74
2021/07/02 05:32:41;;;;;;;;;;;;;;;32.30;33.89;96609.10;1849060;77;20112;-76
2021/07/02 05:35:08;;;;;;;;;;;;;;;32.18;35.53;96624.36;1848583;77;20104;-73
2021/07/02 05:37:40;;;;;;;;;;;;;;;32.07;38.52;96631.74;1845868;77;20131;-75
2021/07/02 05:40:07;;;;;;;;;;;;;;;31.87;36.33;96639.37;1837634;77;20116;-75
2021/07/02 05:42:33;;;;;;;;;;;;;;;31.67;47.62;96641.00;1832820;77;20093;-72
2021/07/02 05:44:59;;;;;;;;;;;;;;;31.31;34.53;96640.91;1826057;77;20115;-71
2021/07/02 05:47:25;;;;;;;;;;;;;;;31.04;41.12;96650.05;1821206;78;20101;-75
2021/07/02 05:49:51;;;;;;;;;;;;;;;30.71;39.47;96649.33;1829452;77;20222;-73
2021/07/02 05:52:19;;;;;;;;;;;;;;;30.27;35.84;96653.11;1844434;77;20151;-74
2021/07/02 05:54:48;;;;;;;;;;;;;;;29.90;40.20;96657.43;1845420;77;20123;-74
2021/07/02 05:57:13;;;;;;;;;;;;;;;29.41;38.96;96656.13;1843364;77;20421;-74
2021/07/02 05:59:39;;;;;;;;;;;;;;;29.14;45.68;96664.48;1839793;77;20191;-74
2021/07/02 06:02:06;;;;;;;;;;;;;;;28.86;40.81;96664.70;1812666;78;20183;-74
2021/07/02 06:04:32;;;;;;;;;;;;;;;28.65;42.05;96671.17;1818475;78;20156;-76
2021/07/02 06:06:58;;;;;;;;;;;;;;;28.47;42.59;96673.09;1829144;77;20095;-75
2021/07/02 06:09:24;;;;;;;;;;;;;;;28.25;40.54;96669.48;1846923;77;20092;-75
2021/07/02 06:11:51;;;;;;;;;;;;;;;28.12;54.84;96671.45;1821574;77;20131;-74
2021/07/02 06:14:18;;;;;;;;;;;;;;;27.87;44.45;96670.48;1823123;78;20092;-74
2021/07/02 06:16:44;;;;;;;;;;;;;;;27.71;42.88;96669.39;1836875;77;20088;-75
2021/07/02 06:19:10;;;;;;;;;;;;;;;27.54;44.77;96666.64;1837007;77;20092;-75
2021/07/02 06:21:37;;;;;;;;;;;;;;;27.42;43.46;96661.27;1837192;77;20084;-73
2021/07/02 06:24:04;;;;;;;;;;;;;;;27.32;47.54;96663.77;1847319;77;20368;-75
2021/07/02 06:26:30;;;;;;;;;;;;;;;27.23;60.99;96663.34;1842639;77;20141;-75
2021/07/02 06:28:57;;;;;;;;;;;;;;;27.02;49.74;96662.94;1844654;77;20124;-75
2021/07/02 06:31:23;;;;;;;;;;;;;;;26.89;58.97;96665.38;1841636;77;20152;-75
2021/07/02 06:33:49;;;;;;;;;;;;;;;26.72;49.97;96661.74;1844605;77;20441;-74
2021/07/02 06:36:15;;;;;;;;;;;;;;;26.55;45.13;96662.98;1818732;77;20118;-73
2021/07/02 06:38:41;;;;;;;;;;;;;;;26.44;60.75;96663.30;1839006;77;20104;-76
2021/07/02 06:41:07;;;;;;;;;;;;;;;26.17;47.57;96662.41;1824893;77;20104;-74
2021/07/02 06:43:33;;;;;;;;;;;;;;;26.04;60.75;96667.45;1836685;77;20126;-74
2021/07/02 06:46:01;;;;;;;;;;;;;;;25.90;50.29;96664.14;1843857;77;20155;-83
2021/07/02 06:48:27;;;;;;;;;;;;;;;25.81;48.58;96662.31;1828390;77;20092;-80
2021/07/02 06:50:56;;;;;;;;;;;;;;;25.75;59.13;96667.81;1837382;77;20092;-75
2021/07/02 06:53:22;;;;;;;;;;;;;;;25.60;60.44;96669.08;1828694;77;20108;-82
2021/07/02 06:55:48;;;;;;;;;;;;;;;25.39;52.84;96671.70;1840562;77;20106;-78
2021/07/02 06:58:14;;;;;;;;;;;;;;;25.33;60.59;96670.77;1853269;77;20110;-76
2021/07/02 07:00:40;;;;;;;;;;;;;;;25.21;55.50;96671.23;1851778;77;20157;-79
2021/07/02 07:03:07;;;;;;;;;;;;;;;25.10;54.86;96670.13;1849825;77;20201;-75
2021/07/02 07:05:34;;;;;;;;;;;;;;;25.08;49.67;96670.87;1848526;77;20126;-75
2021/07/02 07:08:04;;;;;;;;;;;;;;;25.12;49.68;96680.14;1847649;77;20169;-78
2021/07/02 07:10:31;;;;;;;;;;;;;;;25.13;45.57;96671.55;1851385;77;20170;-75
2021/07/02 07:12:58;;;;;;;;;;;;;;;25.09;48.72;96681.42;1853504;77;20491;-78
2021/07/02 07:15:25;;;;;;;;;;;;;;;25.12;57.81;96688.23;1852765;77;20204;-75
2021/07/02 07:17:52;;;;;;;;;;;;;;;25.13;45.80;96678.28;1851676;77;20106;-75
2021/07/02 07:20:19;;;;;;;;;;;;;;;25.22;47.81;96679.08;1850999;77;20466;-79
2021/07/02 07:22:47;;;;;;;;;;;;;;;25.33;46.14;96669.92;1852149;77;20533;-76
2021/07/02 07:25:14;;;;;;;;;;;;;;;25.45;48.82;96669.48;1851645;77;20158;-76
2021/07/02 07:27:44;;;;;;;;;;;;;;;25.49;60.57;96676.59;1849674;77;20385;-74
2021/07/02 07:30:14;;;;;;;;;;;;;;;25.68;50.76;96671.95;1836090;77;20311;-73
2021/07/02 07:32:41;;;;;;;;;;;;;;;25.92;53.38;96667.98;1839488;77;20152;-73
2021/07/02 07:35:19;;;;;;;;;;;;;;;26.14;50.49;96667.73;1838621;77;20095;-76
2021/07/02 07:37:42;;;;;;;;;;;;;;;26.40;45.86;96661.59;1845424;77;20096;-76
2021/07/02 07:40:09;;;;;;;;;;;;;;;26.54;54.53;96658.64;1846407;77;20132;-74
2021/07/02 07:42:35;;;;;;;;;;;;;;;26.75;52.19;96666.66;1846242;77;20167;-73
2021/07/02 07:45:02;;;;;;;;;;;;;;;27.00;53.04;96666.95;1846624;77;20152;-75
2021/07/02 07:47:28;;;;;;;;;;;;;;;27.19;54.12;96661.63;1847978;77;20425;-71
2021/07/02 07:49:54;;;;;;;;;;;;;;;27.47;57.28;96662.73;1847558;77;20140;-76
2021/07/02 07:52:58;;;;;;;;;;;;;;;27.33;44.58;96658.11;1846159;77;20170;-76
2021/07/02 07:54:54;;;;;;;;;;;;;;;27.49;45.30;96659.25;1842335;77;20135;-76
2021/07/02 07:57:20;;;;;;;;;;;;;;;27.65;55.19;96665.77;1824753;77;20100;-73
2021/07/02 07:59:46;;;;;;;;;;;;;;;27.66;44.02;96665.23;1823688;77;20128;-73
2021/07/02 08:02:12;;;;;;;;;;;;;;;27.74;48.06;96664.86;1834690;77;20170;-80
2021/07/02 08:04:40;;;;;;;;;;;;;;;27.84;38.35;96658.23;1828791;78;20099;-73
2021/07/02 08:07:06;;;;;;;;;;;;;;;28.04;38.93;96663.70;1843367;77;20177;-74
2021/07/02 08:09:32;;;;;;;;;;;;;;;28.22;46.85;96664.03;1845818;77;20114;-75
2021/07/02 08:11:58;;;;;;;;;;;;;;;28.11;41.30;96663.58;1846162;77;20095;-72
2021/07/02 08:14:26;;;;;;;;;;;;;;;27.99;43.25;96670.41;1840044;77;20735;-81
2021/07/02 08:16:52;;;;;;;;;;;;;;;28.05;51.36;96674.31;1825187;77;20120;-74
2021/07/02 08:19:18;;;;;;;;;;;;;;;27.88;42.21;96670.78;1818511;77;20084;-73
2021/07/02 08:21:44;;;;;;;;;;;;;;;27.77;39.68;96681.14;1777500;79;20227;-74
2021/07/02 08:24:10;;;;;;;;;;;;;;;27.73;44.34;96674.84;1800987;78;20105;-73
2021/07/02 08:26:36;;;;;;;;;;;;;;;27.55;41.57;96677.25;1829568;77;20100;-79
2021/07/02 08:31:47;;;;;;;;;;;;;;;27.51;40.92;96681.48;1835610;77;20135;-78
2021/07/02 08:34:13;;;;;;;;;;;;;;;27.33;60.42;96691.92;1825508;77;20115;-78
2021/07/02 08:36:39;;;;;;;;;;;;;;;26.93;48.13;96683.30;1828397;77;20409;-78
2021/07/02 08:39:05;;;;;;;;;;;;;;;26.80;42.19;96674.38;1832353;77;20107;-73
2021/07/02 08:41:32;;;;;;;;;;;;;;;26.74;43.58;96687.98;1848805;77;20100;-73
2021/07/02 08:43:59;;;;;;;;;;;;;;;25.98;42.57;96684.58;1846699;77;20088;-73
2021/07/02 08:46:26;;;;;;;;;;;;;;;25.55;53.87;96689.16;1827264;77;20151;-78
2021/07/02 08:48:52;;;;;;;;;;;;;;;25.13;51.43;96680.98;1822831;77;20143;-74
2021/07/02 08:51:19;;;;;;;;;;;;;;;25.03;45.62;96693.13;1823028;77;20123;-72
2021/07/02 08:53:45;;;;;;;;;;;;;;;25.16;47.56;96689.44;1835934;77;20104;-75
2021/07/02 08:56:12;;;;;;;;;;;;;;;25.26;46.80;96684.84;1837754;77;20397;-77
2021/07/02 08:58:38;;;;;;;;;;;;;;;25.41;47.49;96684.47;1831700;77;20393;-78
2021/07/02 09:01:08;;;;;;;;;;;;;;;25.68;48.15;96684.09;1818956;78;20300;-77
2021/07/02 09:03:37;;;;;;;;;;;;;;;25.98;50.12;96690.83;1818988;78;20104;-81
2021/07/02 09:06:13;;;;;;;;;;;;;;;26.45;52.27;96687.91;1822359;78;20156;-73
2021/07/02 09:08:43;;;;;;;;;;;;;;;26.74;49.54;96692.87;1843333;77;20092;-83
2021/07/02 09:11:32;;;;;;;;;;;;;;;27.00;44.53;96683.17;1835337;77;20211;-85
2021/07/02 09:13:59;;;;;;;;;;;;;;;27.33;47.00;96680.30;1827865;77;20405;-83
2021/07/02 09:16:37;;;;;;;;;;;;;;;27.53;55.83;96682.08;1816189;78;20136;-74
2021/07/02 09:19:27;;;;;;;;;;;;;;;27.66;53.58;96680.11;1829828;77;20119;-80
2021/07/02 09:21:55;;;;;;;;;;;;;;;27.65;47.38;96679.30;1839336;77;20206;-76
2021/07/02 09:24:38;;;;;;;;;;;;;;;27.76;51.49;96680.84;1822898;77;20369;-77
2021/07/02 09:27:24;;;;;;;;;;;;;;;27.84;44.60;96671.77;1818677;77;20157;-72
2021/07/02 09:30:06;;;;;;;;;;;;;;;27.98;41.98;96674.18;1806280;78;20086;-76
2021/07/02 09:32:33;;;;;;;;;;;;;;;28.03;44.15;96674.25;1796994;78;20094;-73
2021/07/02 09:35:01;;;;;;;;;;;;;;;28.06;41.77;96669.70;1812815;78;20422;-73
2021/07/02 09:37:38;;;;;;;;;;;;;;;28.22;44.50;96670.81;1792412;78;20854;-75
2021/07/02 09:40:14;;;;;;;;;;;;;;;28.27;42.43;96666.81;1809947;78;20124;-75
2021/07/02 09:42:41;;;;;;;;;;;;;;;28.34;47.67;96670.71;1791844;78;20116;-82
2021/07/02 09:45:13;;;;;;;;;;;;;;;28.46;40.88;96669.25;1797510;78;20091;-85
2021/07/02 09:47:41;;;;;;;;;;;;;;;28.60;38.89;96672.44;1831129;77;20400;-83
2021/07/02 09:50:20;;;;;;;;;;;;;;;28.59;41.08;96662.14;1827769;78;20151;-79
2021/07/02 09:52:53;;;;;;;;;;;;;;;28.60;40.74;96669.20;1818031;77;20110;-82
2021/07/02 09:55:24;;;;;;;;;;;;;;;28.59;39.94;96663.50;1838239;77;20210;-87
2021/07/02 09:57:54;;;;;;;;;;;;;;;28.31;38.30;96659.84;1843781;77;20381;-82
2021/07/02 10:00:20;;;;;;;;;;;;;;;28.29;47.30;96661.97;1833386;77;20417;-81
2021/07/02 10:02:58;;;;;;;;;;;;;;;28.28;42.13;96661.68;1837728;77;20184;-84
2021/07/02 10:05:25;;;;;;;;;;;;;;;28.27;42.21;96665.45;1842488;77;20158;-80
2021/07/02 10:07:59;;;;;;;;;;;;;;;28.46;42.17;96670.09;1835170;77;20182;-79
2021/07/02 10:10:25;;;;;;;;;;;;;;;28.50;51.30;96670.41;1825058;77;20095;-73
2021/07/02 10:12:53;;;;;;;;;;;;;;;28.33;47.01;96662.30;1818469;77;20142;-73
2021/07/02 10:15:20;;;;;;;;;;;;;;;28.44;43.21;96664.09;1825015;77;20112;-75
2021/07/02 10:17:47;;;;;;;;;;;;;;;28.76;53.17;96662.14;1816735;78;20127;-74
2021/07/02 10:20:14;;;;;;;;;;;;;;;28.97;40.51;96663.22;1795717;78;20166;-73
2021/07/02 10:22:42;;;;;;;;;;;;;;;28.94;52.12;96659.64;1818423;77;20197;-74
2021/07/02 10:25:12;;;;;;;;;;;;;;;28.88;39.34;96653.88;1794395;77;20119;-76
2021/07/02 10:27:39;;;;;;;;;;;;;;;28.91;39.05;96648.48;1822359;77;20100;-76
2021/07/02 10:30:07;;;;;;;;;;;;;;;28.79;50.69;96649.97;1836826;77;20174;-74
2021/07/02 10:32:34;;;;;;;;;;;;;;;28.75;41.68;96652.88;1834766;77;20148;-75
2021/07/02 10:35:00;;;;;;;;;;;;;;;28.80;40.90;96650.25;1819803;77;20096;-77
2021/07/02 10:37:26;;;;;;;;;;;;;;;28.79;46.18;96645.89;1833224;77;20111;-72
2021/07/02 10:39:53;;;;;;;;;;;;;;;28.75;47.08;96642.03;1832534;77;20100;-75
2021/07/02 10:42:19;;;;;;;;;;;;;;;28.77;43.94;96641.25;1831965;77;20104;-73
2021/07/02 10:44:59;;;;;;;;;;;;;;;28.78;40.21;96636.12;1832033;77;20116;-72
2021/07/02 10:47:29;;;;;;;;;;;;;;;28.95;39.84;96635.52;1824759;78;20097;-75
2021/07/02 10:49:55;;;;;;;;;;;;;;;29.02;40.45;96633.14;1789014;77;20415;-74
2021/07/02 10:52:28;;;;;;;;;;;;;;;29.10;43.15;96624.55;1830455;77;20092;-74
2021/07/02 10:54:56;;;;;;;;;;;;;;;28.91;41.67;96614.58;1838425;77;20454;-75
2021/07/02 10:57:25;;;;;;;;;;;;;;;28.77;39.22;96617.66;1849994;77;20418;-76
2021/07/02 10:59:56;;;;;;;;;;;;;;;28.60;45.00;96616.34;1822075;78;20511;-75
2021/07/02 11:02:24;;;;;;;;;;;;;;;27.86;40.46;96616.05;1828247;77;20156;-75
2021/07/02 11:04:52;;;;;;;;;;;;;;;27.17;37.87;96611.55;1827992;77;20131;-75
2021/07/02 11:07:22;;;;;;;;;;;;;;;26.95;39.30;96616.30;1832306;77;20159;-76
2021/07/02 11:09:55;;;;;;;;;;;;;;;26.78;42.72;96620.27;1825534;77;20171;-76
2021/07/02 11:12:21;;;;;;;;;;;;;;;26.37;41.04;96622.05;1834060;77;20219;-76
2021/07/02 11:15:05;;;;;;;;;;;;;;;26.26;42.55;96619.66;1845539;77;20174;-74
2021/07/02 11:17:34;;;;;;;;;;;;;;;26.33;44.08;96623.05;1827912;77;20194;-80
2021/07/02 11:20:11;;;;;;;;;;;;;;;26.41;43.20;96630.80;1833231;77;20228;-78
2021/07/02 11:22:46;;;;;;;;;;;;;;;26.49;42.76;96637.73;1834553;77;20383;-75
2021/07/02 11:25:30;;;;;;;;;;;;;;;26.47;42.47;96633.92;1823883;77;20433;-74
2021/07/02 11:28:09;;;;;;;;;;;;;;;26.34;43.27;96627.40;1831905;77;20120;-75
2021/07/02 11:30:37;;;;;;;;;;;;;;;26.18;45.11;96623.01;1827438;77;20110;-75
2021/07/02 11:33:12;;;;;;;;;;;;;;;26.10;43.01;96634.16;1823942;77;20123;-78
2021/07/02 11:35:51;;;;;;;;;;;;;;;26.03;44.90;96633.43;1823231;77;20558;-79
2021/07/02 11:38:19;;;;;;;;;;;;;;;26.00;41.18;96636.59;1818098;77;20148;-73
2021/07/02 11:41:00;;;;;;;;;;;;;;;25.98;40.43;96634.13;1824125;77;20175;-75
2021/07/02 11:43:35;;;;;;;;;;;;;;;25.97;42.10;96639.73;1837994;77;20108;-78
2021/07/02 11:46:06;;;;;;;;;;;;;;;25.90;42.15;96646.59;1835377;77;20128;-76
2021/07/02 11:48:35;;;;;;;;;;;;;;;25.91;42.42;96640.14;1794808;77;20140;-77
2021/07/02 11:51:09;;;;;;;;;;;;;;;25.88;43.99;96638.73;1818386;77;20222;-73
2021/07/02 11:53:43;;;;;;;;;;;;;;;25.77;42.20;96643.58;1817016;77;20123;-75
2021/07/02 11:56:18;;;;;;;;;;;;;;;25.68;44.05;96647.66;1841238;77;20131;-75
2021/07/02 11:59:03;;;;;;;;;;;;;;;25.50;44.88;96645.88;1823849;77;20120;-74
2021/07/02 12:01:38;;;;;;;;;;;;;;;25.22;44.63;96648.07;1835875;77;20124;-77
2021/07/02 12:04:13;;;;;;;;;;;;;;;24.95;46.09;96647.06;1841882;77;20185;-76
2021/07/02 12:06:42;;;;;;;;;;;;;;;24.64;47.50;96652.06;1830197;77;20095;-77
2021/07/02 12:09:10;;;;;;;;;;;;;;;24.29;48.97;96659.36;1829018;77;20092;-76
2021/07/02 12:11:45;;;;;;;;;;;;;;;23.91;50.02;96666.47;1837411;77;20104;-83
2021/07/02 12:14:12;;;;;;;;;;;;;;;23.58;51.70;96668.05;1830668;77;20119;-79
2021/07/02 12:16:44;;;;;;;;;;;;;;;23.20;53.27;96683.96;1834294;77;20104;-75
2021/07/02 12:19:15;;;;;;;;;;;;;;;22.95;53.50;96695.95;1845489;77;20087;-75
2021/07/02 12:21:52;;;;;;;;;;;;;;;22.64;52.89;96701.49;1840690;77;20147;-80
2021/07/02 12:24:21;;;;;;;;;;;;;;;22.39;53.95;96703.47;1843434;77;20470;-75
2021/07/02 12:26:52;;;;;;;;;;;;;;;22.10;53.51;96702.02;1827624;77;20100;-74
2021/07/02 12:29:18;;;;;;;;;;;;;;;21.93;54.14;96699.75;1840794;77;20428;-76
2021/07/02 12:31:51;;;;;;;;;;;;;;;21.75;54.43;96695.50;1843577;77;20174;-76
2021/07/02 12:34:25;;;;;;;;;;;;;;;21.56;56.66;96693.89;1839137;76;20163;-78
2021/07/02 12:36:55;;;;;;;;;;;;;;;21.41;56.65;96692.71;1843299;77;20187;-77
2021/07/02 12:39:26;;;;;;;;;;;;;;;21.28;59.14;96692.69;1827461;77;20218;-76
2021/07/02 12:41:52;;;;;;;;;;;;;;;21.18;56.74;96680.99;1850839;77;20088;-78
2021/07/02 12:44:24;;;;;;;;;;;;;;;21.08;58.04;96679.20;1825556;77;20418;-76
2021/07/02 12:46:51;;;;;;;;;;;;;;;20.95;57.68;96676.80;1822003;77;20808;-77
2021/07/02 12:49:27;;;;;;;;;;;;;;;20.83;59.09;96669.00;1821054;78;20182;-74
2021/07/02 12:57:16;;;;;;;;;;;;;;;20.74;61.60;96665.69;1802393;79;20181;-77
2021/07/02 12:59:48;;;;;;;;;;;;;;;20.79;60.10;96666.43;1778097;79;20103;-75
2021/07/02 13:02:28;;;;;;;;;;;;;;;20.85;59.00;96675.81;1738797;80;20093;-77